KAL791 RKSI-RJFF
Flight info
| Callsign | KAL791 |
|---|---|
| Flight time | 0h 57m |
| Altitude | 29000 |
| Route | OSPOT2Y OSPOT Y782 TGU Y781 BESNA Y209 SARUP SARUPK |
| Aircraft | A321/M-SDE3FGHIRWY/LB1 |
Departure
| Time | 2026-05-08 05:42 |
|---|---|
| Airport | Incheon International Airport (RKSI) |
Arrival
| Time | 2026-05-08 06:39 |
|---|---|
| Airport | Fukuoka Airport (RJFF) |
| Time | Latitude | Longitude | Altitude | Speed | Heading |
|---|---|---|---|---|---|
| 2026-05-08 05:14 | 37.46168 | 126.43449 | 33 ft | 0 kts | 333° |
| 2026-05-08 05:31 | 37.46148 | 126.43463 | 33 ft | 4 kts | 327° |
| 2026-05-08 05:31 | 37.46126 | 126.43484 | 32 ft | 4 kts | 314° |
| 2026-05-08 05:32 | 37.46111 | 126.43510 | 32 ft | 4 kts | 284° |
| 2026-05-08 05:32 | 37.46111 | 126.43532 | 31 ft | 1 kts | 234° |
| 2026-05-08 05:32 | 37.46114 | 126.43537 | 33 ft | 0 kts | 234° |
| 2026-05-08 05:34 | 37.46113 | 126.43536 | 33 ft | 1 kts | 234° |
| 2026-05-08 05:34 | 37.46102 | 126.43516 | 31 ft | 1 kts | 234° |
| 2026-05-08 05:35 | 37.46079 | 126.43477 | 32 ft | 7 kts | 234° |
| 2026-05-08 05:35 | 37.46051 | 126.43427 | 33 ft | 7 kts | 234° |
| 2026-05-08 05:35 | 37.46026 | 126.43383 | 32 ft | 6 kts | 234° |
| 2026-05-08 05:35 | 37.45980 | 126.43301 | 31 ft | 15 kts | 235° |
| 2026-05-08 05:36 | 37.45904 | 126.43218 | 33 ft | 14 kts | 182° |
| 2026-05-08 05:36 | 37.45826 | 126.43272 | 31 ft | 12 kts | 146° |
| 2026-05-08 05:36 | 37.45755 | 126.43335 | 33 ft | 14 kts | 144° |
| 2026-05-08 05:36 | 37.45676 | 126.43405 | 31 ft | 13 kts | 144° |
| 2026-05-08 05:37 | 37.45585 | 126.43487 | 33 ft | 21 kts | 145° |
| 2026-05-08 05:37 | 37.45465 | 126.43594 | 31 ft | 21 kts | 144° |
| 2026-05-08 05:37 | 37.45348 | 126.43697 | 33 ft | 20 kts | 145° |
| 2026-05-08 05:37 | 37.45238 | 126.43795 | 33 ft | 19 kts | 144° |
| 2026-05-08 05:38 | 37.45134 | 126.43888 | 31 ft | 18 kts | 144° |
| 2026-05-08 05:38 | 37.45036 | 126.43976 | 31 ft | 17 kts | 145° |
| 2026-05-08 05:38 | 37.44945 | 126.44057 | 31 ft | 16 kts | 145° |
| 2026-05-08 05:38 | 37.44859 | 126.44132 | 31 ft | 14 kts | 144° |
| 2026-05-08 05:39 | 37.44781 | 126.44202 | 32 ft | 13 kts | 144° |
| 2026-05-08 05:39 | 37.44710 | 126.44266 | 32 ft | 12 kts | 144° |
| 2026-05-08 05:39 | 37.44645 | 126.44324 | 30 ft | 11 kts | 144° |
| 2026-05-08 05:39 | 37.44588 | 126.44375 | 33 ft | 10 kts | 144° |
| 2026-05-08 05:40 | 37.44537 | 126.44419 | 32 ft | 8 kts | 153° |
| 2026-05-08 05:40 | 37.44490 | 126.44408 | 32 ft | 6 kts | 208° |
| 2026-05-08 05:40 | 37.44464 | 126.44368 | 33 ft | 6 kts | 232° |
| 2026-05-08 05:40 | 37.44415 | 126.44282 | 33 ft | 18 kts | 234° |
| 2026-05-08 05:41 | 37.44389 | 126.44154 | 31 ft | 14 kts | 294° |
| 2026-05-08 05:41 | 37.44456 | 126.44072 | 31 ft | 14 kts | 324° |
| 2026-05-08 05:41 | 37.44624 | 126.43922 | 31 ft | 66 kts | 324° |
| 2026-05-08 05:41 | 37.45235 | 126.43374 | 33 ft | 145 kts | 325° |
| 2026-05-08 05:42 | 37.46200 | 126.42494 | 299 ft | 183 kts | 323° |
| 2026-05-08 05:42 | 37.47231 | 126.41550 | 1200 ft | 187 kts | 321° |
| 2026-05-08 05:42 | 37.48236 | 126.40473 | 1860 ft | 194 kts | 311° |
| 2026-05-08 05:42 | 37.49164 | 126.39097 | 2187 ft | 216 kts | 307° |
| 2026-05-08 05:43 | 37.50076 | 126.37569 | 2896 ft | 218 kts | 299° |
| 2026-05-08 05:43 | 37.50491 | 126.35728 | 3555 ft | 229 kts | 275° |
| 2026-05-08 05:43 | 37.50515 | 126.33677 | 4205 ft | 237 kts | 274° |
| 2026-05-08 05:43 | 37.50542 | 126.31583 | 4970 ft | 240 kts | 275° |
| 2026-05-08 05:44 | 37.50576 | 126.29471 | 5770 ft | 242 kts | 275° |
| 2026-05-08 05:44 | 37.50616 | 126.27341 | 6540 ft | 245 kts | 275° |
| 2026-05-08 05:44 | 37.50661 | 126.25191 | 7282 ft | 247 kts | 275° |
| 2026-05-08 05:44 | 37.50707 | 126.23006 | 7987 ft | 251 kts | 275° |
| 2026-05-08 05:45 | 37.50608 | 126.20791 | 8680 ft | 259 kts | 261° |
| 2026-05-08 05:45 | 37.49843 | 126.18694 | 9346 ft | 273 kts | 238° |
| 2026-05-08 05:45 | 37.48372 | 126.17095 | 10000 ft | 291 kts | 213° |
| 2026-05-08 05:45 | 37.46403 | 126.16154 | 10317 ft | 317 kts | 200° |
| 2026-05-08 05:46 | 37.44917 | 126.15821 | 10409 ft | 337 kts | 191° |
| 2026-05-08 05:46 | 37.42473 | 126.15905 | 10561 ft | 366 kts | 175° |
| 2026-05-08 05:46 | 37.41928 | 126.16026 | 10600 ft | 372 kts | 172° |
| 2026-05-08 05:47 | 37.40665 | 126.16469 | 10761 ft | 382 kts | 164° |
| 2026-05-08 05:47 | 37.38253 | 126.17995 | 11196 ft | 395 kts | 147° |
| 2026-05-08 05:47 | 37.36181 | 126.20304 | 11775 ft | 402 kts | 132° |
| 2026-05-08 05:47 | 37.33707 | 126.23815 | 12570 ft | 408 kts | 131° |
| 2026-05-08 05:48 | 37.31825 | 126.26514 | 13164 ft | 412 kts | 132° |
| 2026-05-08 05:48 | 37.30544 | 126.28352 | 13562 ft | 415 kts | 132° |
| 2026-05-08 05:48 | 37.28661 | 126.31053 | 14126 ft | 419 kts | 132° |
| 2026-05-08 05:48 | 37.26730 | 126.33822 | 14680 ft | 423 kts | 133° |
| 2026-05-08 05:49 | 37.24780 | 126.36614 | 15225 ft | 427 kts | 133° |
| 2026-05-08 05:49 | 37.22812 | 126.39423 | 15747 ft | 431 kts | 133° |
| 2026-05-08 05:49 | 37.20828 | 126.42258 | 16259 ft | 434 kts | 131° |
| 2026-05-08 05:49 | 37.19061 | 126.45357 | 16731 ft | 441 kts | 122° |
| 2026-05-08 05:50 | 37.17644 | 126.48791 | 17205 ft | 445 kts | 116° |
| 2026-05-08 05:50 | 37.16293 | 126.52298 | 17667 ft | 449 kts | 116° |
| 2026-05-08 05:50 | 37.14928 | 126.55835 | 18120 ft | 452 kts | 117° |
| 2026-05-08 05:50 | 37.13546 | 126.59398 | 18548 ft | 456 kts | 117° |
| 2026-05-08 05:51 | 37.12152 | 126.62982 | 18972 ft | 460 kts | 117° |
| 2026-05-08 05:51 | 37.10738 | 126.66610 | 19385 ft | 464 kts | 117° |
| 2026-05-08 05:51 | 37.09316 | 126.70254 | 19789 ft | 468 kts | 117° |
| 2026-05-08 05:51 | 37.07876 | 126.73938 | 20188 ft | 472 kts | 117° |
| 2026-05-08 05:52 | 37.06424 | 126.77652 | 20579 ft | 476 kts | 118° |
| 2026-05-08 05:52 | 37.04962 | 126.81384 | 20962 ft | 480 kts | 118° |
| 2026-05-08 05:52 | 37.03486 | 126.85154 | 21323 ft | 483 kts | 118° |
| 2026-05-08 05:52 | 37.02000 | 126.88949 | 21678 ft | 487 kts | 118° |
| 2026-05-08 05:53 | 37.00499 | 126.92771 | 22042 ft | 491 kts | 118° |
| 2026-05-08 05:53 | 36.98985 | 126.96616 | 22415 ft | 494 kts | 119° |
| 2026-05-08 05:53 | 36.97459 | 127.00482 | 22767 ft | 498 kts | 119° |
| 2026-05-08 05:53 | 36.95939 | 127.04335 | 23106 ft | 501 kts | 119° |
| 2026-05-08 05:54 | 36.94387 | 127.08258 | 23437 ft | 505 kts | 120° |
| 2026-05-08 05:54 | 36.92826 | 127.12198 | 23760 ft | 508 kts | 120° |
| 2026-05-08 05:54 | 36.91254 | 127.16171 | 24097 ft | 510 kts | 120° |
| 2026-05-08 05:54 | 36.89678 | 127.20159 | 24394 ft | 514 kts | 120° |
| 2026-05-08 05:55 | 36.88085 | 127.24177 | 24718 ft | 516 kts | 121° |
| 2026-05-08 05:55 | 36.86482 | 127.28205 | 25032 ft | 519 kts | 121° |
| 2026-05-08 05:55 | 36.84807 | 127.32204 | 25346 ft | 518 kts | 126° |
| 2026-05-08 05:55 | 36.82769 | 127.35884 | 25655 ft | 513 kts | 136° |
| 2026-05-08 05:56 | 36.80375 | 127.39144 | 25934 ft | 508 kts | 143° |
| 2026-05-08 05:56 | 36.77840 | 127.42231 | 26249 ft | 510 kts | 144° |
| 2026-05-08 05:56 | 36.75305 | 127.45326 | 26549 ft | 512 kts | 144° |
| 2026-05-08 05:56 | 36.72759 | 127.48447 | 26837 ft | 514 kts | 144° |
| 2026-05-08 05:57 | 36.70208 | 127.51580 | 27116 ft | 516 kts | 144° |
| 2026-05-08 05:57 | 36.67647 | 127.54722 | 27410 ft | 517 kts | 144° |
| 2026-05-08 05:57 | 36.65074 | 127.57867 | 27678 ft | 519 kts | 144° |
| 2026-05-08 05:57 | 36.62491 | 127.61024 | 27947 ft | 521 kts | 145° |
| 2026-05-08 05:58 | 36.59901 | 127.64190 | 28226 ft | 523 kts | 145° |
| 2026-05-08 05:58 | 36.57297 | 127.67373 | 28454 ft | 525 kts | 145° |
| 2026-05-08 05:58 | 36.54686 | 127.70555 | 28747 ft | 525 kts | 146° |
| 2026-05-08 05:58 | 36.52079 | 127.73730 | 28981 ft | 524 kts | 146° |
| 2026-05-08 05:59 | 36.49505 | 127.76867 | 29010 ft | 513 kts | 146° |
| 2026-05-08 05:59 | 36.44450 | 127.83010 | 28991 ft | 506 kts | 147° |
| 2026-05-08 06:00 | 36.39438 | 127.89068 | 28981 ft | 506 kts | 147° |
| 2026-05-08 06:00 | 36.34397 | 127.95156 | 28971 ft | 505 kts | 147° |
| 2026-05-08 06:01 | 36.29374 | 128.01233 | 28976 ft | 505 kts | 148° |
| 2026-05-08 06:01 | 36.24347 | 128.07297 | 28963 ft | 504 kts | 148° |
| 2026-05-08 06:02 | 36.19314 | 128.13342 | 28967 ft | 504 kts | 148° |
| 2026-05-08 06:02 | 36.14287 | 128.19377 | 28938 ft | 504 kts | 148° |
| 2026-05-08 06:03 | 36.09254 | 128.25414 | 28924 ft | 503 kts | 148° |
| 2026-05-08 06:03 | 36.04225 | 128.31431 | 28924 ft | 503 kts | 148° |
| 2026-05-08 06:04 | 35.99231 | 128.37400 | 28928 ft | 503 kts | 148° |
| 2026-05-08 06:04 | 35.94200 | 128.43391 | 28932 ft | 502 kts | 148° |
| 2026-05-08 06:05 | 35.89173 | 128.49343 | 28936 ft | 501 kts | 148° |
| 2026-05-08 06:05 | 35.86599 | 128.52203 | 28940 ft | 490 kts | 155° |
| 2026-05-08 06:05 | 35.83837 | 128.54524 | 28952 ft | 473 kts | 164° |
| 2026-05-08 06:05 | 35.80932 | 128.56277 | 28964 ft | 456 kts | 173° |
| 2026-05-08 06:06 | 35.77971 | 128.57455 | 28973 ft | 439 kts | 181° |
| 2026-05-08 06:06 | 35.75013 | 128.58101 | 28980 ft | 424 kts | 188° |
| 2026-05-08 06:06 | 35.72113 | 128.58261 | 28983 ft | 411 kts | 195° |
| 2026-05-08 06:07 | 35.66486 | 128.57766 | 28986 ft | 404 kts | 199° |
| 2026-05-08 06:07 | 35.60845 | 128.57237 | 29003 ft | 413 kts | 199° |
| 2026-05-08 06:07 | 35.57969 | 128.56973 | 28656 ft | 415 kts | 199° |
| 2026-05-08 06:08 | 35.55072 | 128.56716 | 27771 ft | 419 kts | 199° |
| 2026-05-08 06:08 | 35.52140 | 128.56513 | 26867 ft | 430 kts | 194° |
| 2026-05-08 06:08 | 35.49087 | 128.56754 | 25957 ft | 450 kts | 185° |
| 2026-05-08 06:08 | 35.45961 | 128.57601 | 25282 ft | 470 kts | 175° |
| 2026-05-08 06:09 | 35.42859 | 128.59136 | 25037 ft | 489 kts | 166° |
| 2026-05-08 06:09 | 35.39793 | 128.60949 | 24992 ft | 491 kts | 166° |
| 2026-05-08 06:09 | 35.36709 | 128.62776 | 24985 ft | 494 kts | 166° |
| 2026-05-08 06:09 | 35.33617 | 128.64616 | 24981 ft | 494 kts | 166° |
| 2026-05-08 06:10 | 35.30526 | 128.66454 | 24973 ft | 494 kts | 166° |
| 2026-05-08 06:10 | 35.27472 | 128.68268 | 24971 ft | 494 kts | 166° |
| 2026-05-08 06:10 | 35.24387 | 128.70095 | 24964 ft | 493 kts | 166° |
| 2026-05-08 06:10 | 35.21300 | 128.71921 | 24961 ft | 492 kts | 166° |
| 2026-05-08 06:11 | 35.18216 | 128.73739 | 24952 ft | 492 kts | 166° |
| 2026-05-08 06:11 | 35.15135 | 128.75553 | 24962 ft | 491 kts | 166° |
| 2026-05-08 06:11 | 35.12061 | 128.77364 | 24949 ft | 490 kts | 166° |
| 2026-05-08 06:11 | 35.08995 | 128.79174 | 24953 ft | 490 kts | 166° |
| 2026-05-08 06:12 | 35.05926 | 128.80983 | 24952 ft | 489 kts | 166° |
| 2026-05-08 06:12 | 35.02863 | 128.82789 | 24952 ft | 489 kts | 166° |
| 2026-05-08 06:12 | 34.99832 | 128.84742 | 24950 ft | 498 kts | 160° |
| 2026-05-08 06:12 | 34.96884 | 128.86965 | 24952 ft | 499 kts | 159° |
| 2026-05-08 06:13 | 34.93932 | 128.89199 | 24952 ft | 499 kts | 159° |
| 2026-05-08 06:13 | 34.90985 | 128.91432 | 24964 ft | 498 kts | 159° |
| 2026-05-08 06:13 | 34.88199 | 128.93548 | 24792 ft | 488 kts | 159° |
| 2026-05-08 06:13 | 34.85347 | 128.95722 | 24538 ft | 480 kts | 159° |
| 2026-05-08 06:14 | 34.82528 | 128.97855 | 24288 ft | 476 kts | 160° |
| 2026-05-08 06:14 | 34.79722 | 128.99960 | 24038 ft | 473 kts | 160° |
| 2026-05-08 06:14 | 34.76917 | 129.02054 | 23786 ft | 471 kts | 160° |
| 2026-05-08 06:14 | 34.74126 | 129.04135 | 23525 ft | 469 kts | 160° |
| 2026-05-08 06:15 | 34.71384 | 129.06183 | 23290 ft | 468 kts | 160° |
| 2026-05-08 06:15 | 34.68587 | 129.08279 | 23043 ft | 466 kts | 159° |
| 2026-05-08 06:15 | 34.65866 | 129.10316 | 22786 ft | 464 kts | 159° |
| 2026-05-08 06:15 | 34.63123 | 129.12367 | 22537 ft | 463 kts | 159° |
| 2026-05-08 06:16 | 34.60386 | 129.14412 | 22287 ft | 461 kts | 159° |
| 2026-05-08 06:16 | 34.57664 | 129.16447 | 22037 ft | 459 kts | 159° |
| 2026-05-08 06:16 | 34.54952 | 129.18477 | 21786 ft | 458 kts | 159° |
| 2026-05-08 06:16 | 34.52247 | 129.20500 | 21536 ft | 456 kts | 159° |
| 2026-05-08 06:17 | 34.46860 | 129.24513 | 21056 ft | 453 kts | 159° |
| 2026-05-08 06:17 | 34.44178 | 129.26507 | 20824 ft | 452 kts | 159° |
| 2026-05-08 06:17 | 34.41504 | 129.28497 | 20579 ft | 450 kts | 158° |
| 2026-05-08 06:18 | 34.38834 | 129.30483 | 20322 ft | 449 kts | 158° |
| 2026-05-08 06:18 | 34.36177 | 129.32461 | 20071 ft | 448 kts | 158° |
| 2026-05-08 06:18 | 34.33525 | 129.34430 | 19822 ft | 447 kts | 158° |
| 2026-05-08 06:18 | 34.30878 | 129.36394 | 19570 ft | 445 kts | 158° |
| 2026-05-08 06:19 | 34.28250 | 129.38345 | 19312 ft | 440 kts | 158° |
| 2026-05-08 06:19 | 34.25664 | 129.40268 | 18872 ft | 433 kts | 158° |
| 2026-05-08 06:19 | 34.23118 | 129.42156 | 18421 ft | 427 kts | 158° |
| 2026-05-08 06:19 | 34.20642 | 129.44112 | 18133 ft | 425 kts | 149° |
| 2026-05-08 06:20 | 34.18580 | 129.46678 | 18040 ft | 430 kts | 135° |
| 2026-05-08 06:20 | 34.16706 | 129.49521 | 17951 ft | 433 kts | 134° |
| 2026-05-08 06:20 | 34.14840 | 129.52380 | 17853 ft | 434 kts | 134° |
| 2026-05-08 06:20 | 34.12982 | 129.55246 | 17757 ft | 433 kts | 134° |
| 2026-05-08 06:21 | 34.11132 | 129.58105 | 17655 ft | 432 kts | 134° |
| 2026-05-08 06:21 | 34.09281 | 129.60962 | 17566 ft | 431 kts | 134° |
| 2026-05-08 06:21 | 34.07429 | 129.63812 | 17328 ft | 431 kts | 134° |
| 2026-05-08 06:21 | 34.05582 | 129.66646 | 16823 ft | 429 kts | 134° |
| 2026-05-08 06:22 | 34.03734 | 129.69471 | 16304 ft | 428 kts | 134° |
| 2026-05-08 06:22 | 34.01896 | 129.72275 | 15792 ft | 426 kts | 134° |
| 2026-05-08 06:22 | 34.00081 | 129.75039 | 15286 ft | 424 kts | 130° |
| 2026-05-08 06:22 | 33.98364 | 129.77649 | 14764 ft | 422 kts | 133° |
| 2026-05-08 06:23 | 33.96469 | 129.80533 | 14200 ft | 421 kts | 133° |
| 2026-05-08 06:23 | 33.94746 | 129.83191 | 13683 ft | 420 kts | 132° |
| 2026-05-08 06:23 | 33.92948 | 129.85949 | 13348 ft | 413 kts | 132° |
| 2026-05-08 06:23 | 33.91230 | 129.88574 | 13193 ft | 384 kts | 133° |
| 2026-05-08 06:24 | 33.89637 | 129.91009 | 12969 ft | 359 kts | 133° |
| 2026-05-08 06:24 | 33.88113 | 129.93325 | 12399 ft | 348 kts | 133° |
| 2026-05-08 06:24 | 33.86617 | 129.95584 | 11700 ft | 342 kts | 133° |
| 2026-05-08 06:24 | 33.85162 | 129.97774 | 11008 ft | 337 kts | 132° |
| 2026-05-08 06:25 | 33.83710 | 129.99962 | 10661 ft | 330 kts | 131° |
| 2026-05-08 06:25 | 33.82302 | 130.02086 | 10541 ft | 319 kts | 131° |
| 2026-05-08 06:25 | 33.80931 | 130.04158 | 10429 ft | 316 kts | 131° |
| 2026-05-08 06:25 | 33.79564 | 130.06226 | 10277 ft | 315 kts | 131° |
| 2026-05-08 06:26 | 33.78205 | 130.08283 | 10138 ft | 314 kts | 131° |
| 2026-05-08 06:26 | 33.76851 | 130.10329 | 10016 ft | 311 kts | 131° |
| 2026-05-08 06:26 | 33.75500 | 130.12371 | 9643 ft | 314 kts | 131° |
| 2026-05-08 06:26 | 33.74143 | 130.14419 | 9363 ft | 309 kts | 130° |
| 2026-05-08 06:27 | 33.72816 | 130.16421 | 9116 ft | 303 kts | 130° |
| 2026-05-08 06:27 | 33.71512 | 130.18393 | 8801 ft | 300 kts | 130° |
| 2026-05-08 06:27 | 33.70204 | 130.20334 | 8465 ft | 297 kts | 134° |
| 2026-05-08 06:27 | 33.68685 | 130.21993 | 8112 ft | 293 kts | 147° |
| 2026-05-08 06:28 | 33.67021 | 130.23388 | 7821 ft | 291 kts | 147° |
| 2026-05-08 06:28 | 33.65361 | 130.24784 | 7697 ft | 293 kts | 147° |
| 2026-05-08 06:28 | 33.63695 | 130.26191 | 7564 ft | 293 kts | 147° |
| 2026-05-08 06:28 | 33.62029 | 130.27601 | 7435 ft | 293 kts | 147° |
| 2026-05-08 06:29 | 33.60369 | 130.29008 | 7311 ft | 292 kts | 147° |
| 2026-05-08 06:29 | 33.58711 | 130.30415 | 7199 ft | 292 kts | 147° |
| 2026-05-08 06:29 | 33.57048 | 130.31823 | 7076 ft | 292 kts | 147° |
| 2026-05-08 06:29 | 33.55386 | 130.33210 | 6944 ft | 291 kts | 148° |
| 2026-05-08 06:30 | 33.53697 | 130.34547 | 6817 ft | 290 kts | 149° |
| 2026-05-08 06:30 | 33.52024 | 130.35833 | 6702 ft | 289 kts | 150° |
| 2026-05-08 06:30 | 33.50303 | 130.37137 | 6571 ft | 288 kts | 150° |
| 2026-05-08 06:30 | 33.48625 | 130.38408 | 6448 ft | 289 kts | 150° |
| 2026-05-08 06:31 | 33.46932 | 130.39694 | 6336 ft | 288 kts | 149° |
| 2026-05-08 06:31 | 33.45250 | 130.40978 | 6200 ft | 285 kts | 150° |
| 2026-05-08 06:31 | 33.43604 | 130.42242 | 6040 ft | 276 kts | 149° |
| 2026-05-08 06:31 | 33.42019 | 130.43467 | 5912 ft | 266 kts | 149° |
| 2026-05-08 06:32 | 33.40495 | 130.44650 | 5815 ft | 254 kts | 149° |
| 2026-05-08 06:32 | 33.39053 | 130.45777 | 5637 ft | 243 kts | 146° |
| 2026-05-08 06:32 | 33.37924 | 130.47220 | 5296 ft | 236 kts | 121° |
| 2026-05-08 06:32 | 33.37429 | 130.49068 | 4785 ft | 234 kts | 91° |
| 2026-05-08 06:33 | 33.37650 | 130.50942 | 4308 ft | 225 kts | 64° |
| 2026-05-08 06:33 | 33.38081 | 130.52036 | 4161 ft | 212 kts | 59° |
| 2026-05-08 06:33 | 33.39045 | 130.53995 | 3960 ft | 196 kts | 43° |
| 2026-05-08 06:33 | 33.39678 | 130.54697 | 3740 ft | 179 kts | 30° |
| 2026-05-08 06:34 | 33.40684 | 130.55350 | 3550 ft | 152 kts | 13° |
| 2026-05-08 06:34 | 33.41669 | 130.55627 | 3442 ft | 142 kts | 359° |
| 2026-05-08 06:34 | 33.42637 | 130.55599 | 3308 ft | 138 kts | 345° |
| 2026-05-08 06:34 | 33.43545 | 130.55290 | 3168 ft | 135 kts | 333° |
| 2026-05-08 06:35 | 33.44634 | 130.54586 | 2932 ft | 134 kts | 326° |
| 2026-05-08 06:35 | 33.45169 | 130.54224 | 2820 ft | 133 kts | 326° |
| 2026-05-08 06:35 | 33.45977 | 130.53674 | 2640 ft | 134 kts | 327° |
| 2026-05-08 06:35 | 33.46790 | 130.53121 | 2462 ft | 134 kts | 326° |
| 2026-05-08 06:36 | 33.47598 | 130.52570 | 2294 ft | 134 kts | 326° |
| 2026-05-08 06:36 | 33.48407 | 130.52020 | 2104 ft | 135 kts | 326° |
| 2026-05-08 06:36 | 33.49217 | 130.51467 | 1917 ft | 134 kts | 327° |
| 2026-05-08 06:36 | 33.50026 | 130.50917 | 1739 ft | 133 kts | 326° |
| 2026-05-08 06:37 | 33.50828 | 130.50370 | 1563 ft | 133 kts | 327° |
| 2026-05-08 06:37 | 33.51634 | 130.49821 | 1386 ft | 133 kts | 327° |
| 2026-05-08 06:37 | 33.52442 | 130.49269 | 1208 ft | 134 kts | 327° |
| 2026-05-08 06:37 | 33.53248 | 130.48720 | 1026 ft | 133 kts | 327° |
| 2026-05-08 06:38 | 33.54054 | 130.48173 | 838 ft | 133 kts | 328° |
| 2026-05-08 06:38 | 33.54858 | 130.47618 | 638 ft | 133 kts | 327° |
| 2026-05-08 06:38 | 33.55667 | 130.47064 | 433 ft | 135 kts | 327° |
| 2026-05-08 06:38 | 33.56494 | 130.46493 | 302 ft | 138 kts | 328° |
| 2026-05-08 06:39 | 33.57332 | 130.45920 | 160 ft | 139 kts | 328° |
| 2026-05-08 06:39 | 33.58169 | 130.45354 | 52 ft | 137 kts | 328° |
| 2026-05-08 06:39 | 33.58899 | 130.44858 | 31 ft | 95 kts | 330° |
| 2026-05-08 06:39 | 33.59270 | 130.44599 | 26 ft | 24 kts | 315° |
| 2026-05-08 06:40 | 33.59256 | 130.44477 | 28 ft | 14 kts | 242° |
| 2026-05-08 06:40 | 33.59209 | 130.44383 | 30 ft | 13 kts | 238° |
| 2026-05-08 06:40 | 33.59153 | 130.44319 | 30 ft | 10 kts | 181° |
| 2026-05-08 06:40 | 33.59084 | 130.44355 | 29 ft | 14 kts | 151° |
| 2026-05-08 06:41 | 33.58968 | 130.44434 | 31 ft | 22 kts | 150° |
| 2026-05-08 06:41 | 33.58837 | 130.44520 | 32 ft | 21 kts | 151° |
| 2026-05-08 06:41 | 33.58755 | 130.44555 | 33 ft | 6 kts | 208° |
| 2026-05-08 06:41 | 33.58730 | 130.44515 | 32 ft | 7 kts | 238° |
| 2026-05-08 06:42 | 33.58702 | 130.44455 | 31 ft | 9 kts | 241° |
| 2026-05-08 06:42 | 33.58689 | 130.44428 | 30 ft | 1 kts | 241° |
| 2026-05-08 06:42 | 33.58686 | 130.44420 | 30 ft | 0 kts | 241° |
| 2026-05-08 06:42 | 33.58685 | 130.44420 | 30 ft | 0 kts | 241° |